Time;durP1;ratioP1;P1;durP2;ratioP2;P2;SDS_P1;SDS_P2;PMS_P1;PMS_P2;Temp;Humidity;BMP_temperature;BMP_pressure;BME280_temperature;BME280_humidity;BME280_pressure;Samples;Min_cycle;Max_cycle;Signal;HPM_P1;HPM_P2
2022/01/11 00:01:20;;;;;;;73.17;32.70;;;;;;;-4.14;84.98;102261.53;1614615;88;26620;-77
2022/01/11 00:03:47;;;;;;;71.82;33.25;;;;;;;-4.14;84.98;102260.22;1605441;88;26025;-77
2022/01/11 00:06:38;;;;;;;86.72;37.83;;;;;;;-4.14;84.93;102258.91;1611205;88;25888;-77
2022/01/11 00:09:07;;;;;;;76.33;33.67;;;;;;;-4.14;84.77;102268.52;1610176;88;25987;-77
2022/01/11 00:11:29;;;;;;;73.97;32.40;;;;;;;-4.18;84.52;102262.55;1609532;88;28404;-78
2022/01/11 00:14:00;;;;;;;72.92;32.35;;;;;;;-4.18;84.46;102266.91;1610325;88;25850;-77
2022/01/11 00:16:26;;;;;;;66.10;31.48;;;;;;;-4.23;84.17;102270.99;1609817;88;25830;-77
2022/01/11 00:18:52;;;;;;;71.75;33.63;;;;;;;-4.26;84.17;102272.87;1609949;88;25831;-77
2022/01/11 00:21:19;;;;;;;68.37;31.80;;;;;;;-4.28;84.37;102265.08;1612270;88;26246;-77
2022/01/11 00:26:12;;;;;;;66.15;31.55;;;;;;;-4.33;84.90;102270.91;1610436;87;25969;-78
2022/01/11 00:28:38;;;;;;;64.95;29.82;;;;;;;-4.36;84.97;102265.77;1612560;88;25326;-78
2022/01/11 00:31:21;;;;;;;76.42;33.92;;;;;;;-4.39;84.99;102265.89;1609728;88;25820;-77
2022/01/11 00:33:50;;;;;;;75.75;33.75;;;;;;;-4.40;85.12;102272.45;1609735;88;25974;-77
2022/01/11 00:36:16;;;;;;;70.08;32.75;;;;;;;-4.42;85.28;102275.13;1609485;88;28301;-77
2022/01/11 00:38:42;;;;;;;71.67;33.38;;;;;;;-4.39;85.10;102272.88;1610676;88;26141;-78
2022/01/11 00:41:12;;;;;;;73.00;32.63;;;;;;;-4.39;84.79;102280.72;1613361;88;25836;-78
2022/01/11 00:43:40;;;;;;;67.58;32.20;;;;;;;-4.38;84.48;102280.66;1612602;88;25780;-78
2022/01/11 00:46:10;;;;;;;74.80;34.88;;;;;;;-4.38;84.38;102277.18;1610996;86;26524;-77
2022/01/11 00:48:39;;;;;;;70.00;32.57;;;;;;;-4.38;84.38;102284.58;1610244;88;28092;-77
2022/01/11 00:51:06;;;;;;;70.03;32.53;;;;;;;-4.39;84.06;102286.81;1611727;88;25934;-78
2022/01/11 00:53:33;;;;;;;70.03;33.38;;;;;;;-4.41;84.18;102287.32;1611957;88;25814;-77
2022/01/11 00:55:59;;;;;;;64.55;31.70;;;;;;;-4.43;83.96;102285.21;1609989;88;25852;-77
2022/01/11 00:58:25;;;;;;;70.50;33.23;;;;;;;-4.45;84.01;102285.72;1611702;88;26557;-77
2022/01/11 01:00:51;;;;;;;69.45;31.70;;;;;;;-4.46;83.76;102287.91;1611618;88;27457;-77
2022/01/11 01:03:19;;;;;;;73.83;31.65;;;;;;;-4.46;83.60;102289.22;1609565;88;25769;-77
2022/01/11 01:05:46;;;;;;;74.45;33.80;;;;;;;-4.48;83.13;102293.65;1610023;88;25930;-77
2022/01/11 01:08:14;;;;;;;68.37;32.88;;;;;;;-4.50;82.97;102289.37;1610441;88;25989;-76
2022/01/11 01:10:46;;;;;;;72.92;32.08;;;;;;;-4.54;82.87;102299.09;1612735;88;25866;-78
2022/01/11 01:13:14;;;;;;;74.60;33.10;;;;;;;-4.57;82.73;102291.77;1610169;88;27488;-77
2022/01/11 01:15:47;;;;;;;66.50;31.17;;;;;;;-4.57;82.77;102293.94;1612668;88;25804;-77
2022/01/11 01:18:21;;;;;;;66.02;30.02;;;;;;;-4.58;82.73;102295.31;1611158;88;25973;-77
2022/01/11 01:20:49;;;;;;;67.08;32.30;;;;;;;-4.57;83.00;102300.48;1610084;88;25968;-77
2022/01/11 01:23:16;;;;;;;73.00;31.95;;;;;;;-4.56;82.91;102303.52;1610200;88;26522;-77
2022/01/11 01:25:44;;;;;;;68.67;33.67;;;;;;;-4.57;82.80;102300.48;1612367;88;28325;-77
2022/01/11 01:28:12;;;;;;;74.70;34.88;;;;;;;-4.57;83.02;102304.40;1610829;88;25969;-77
2022/01/11 01:30:39;;;;;;;68.80;32.23;;;;;;;-4.54;83.32;102304.76;1610060;88;25847;-78
2022/01/11 01:33:06;;;;;;;64.67;31.10;;;;;;;-4.54;83.22;102300.39;1609433;88;26016;-77
2022/01/11 01:35:39;;;;;;;71.92;32.23;;;;;;;-4.54;83.07;102304.31;1611165;88;25799;-78
2022/01/11 01:38:01;;;;;;;75.67;35.58;;;;;;;-4.55;83.05;102305.65;1611395;88;28315;-77
2022/01/11 01:40:35;;;;;;;71.85;32.30;;;;;;;-4.58;82.89;102313.16;1610143;88;25931;-77
2022/01/11 01:42:56;;;;;;;75.28;34.20;;;;;;;-4.61;82.65;102317.61;1609770;88;25952;-77
2022/01/11 01:45:24;;;;;;;69.72;31.70;;;;;;;-4.65;82.49;102317.31;1612706;88;25841;-77
2022/01/11 01:47:56;;;;;;;66.37;31.70;;;;;;;-4.67;82.44;102319.98;1610478;88;25773;-77
2022/01/11 01:50:18;;;;;;;67.95;32.15;;;;;;;-4.70;82.29;102324.85;1609724;88;28317;-77
2022/01/11 01:52:44;;;;;;;70.65;31.68;;;;;;;-4.73;82.28;102324.11;1612163;88;25864;-77
2022/01/11 01:55:11;;;;;;;66.22;31.30;;;;;;;-4.73;82.52;102323.62;1610340;88;25874;-77
2022/01/11 01:57:38;;;;;;;68.40;32.67;;;;;;;-4.73;82.64;102324.94;1610890;88;25831;-77
2022/01/11 02:00:11;;;;;;;72.70;32.40;;;;;;;-4.77;82.37;102330.33;1612265;88;25832;-77
2022/01/11 02:02:36;;;;;;;67.50;30.60;;;;;;;-4.77;82.58;102335.09;1610610;88;27540;-77
2022/01/11 02:05:05;;;;;;;66.47;32.05;;;;;;;-4.79;82.43;102334.28;1610253;88;25782;-77
2022/01/11 02:07:32;;;;;;;73.12;33.50;;;;;;;-4.81;82.00;102337.39;1612059;88;26137;-77
2022/01/11 02:09:58;;;;;;;67.27;32.03;;;;;;;-4.85;81.75;102338.39;1611523;88;26638;-77
2022/01/11 02:12:24;;;;;;;67.60;31.62;;;;;;;-4.88;81.55;102338.95;1609509;88;25891;-76
2022/01/11 02:14:51;;;;;;;61.63;29.85;;;;;;;-4.91;81.58;102337.28;1609889;88;28336;-77
2022/01/11 02:17:17;;;;;;;64.75;30.68;;;;;;;-4.92;81.44;102336.03;1611122;88;26511;-77
2022/01/11 02:19:44;;;;;;;70.10;34.23;;;;;;;-4.94;81.51;102338.66;1612393;88;25852;-77
2022/01/11 02:22:11;;;;;;;72.65;32.48;;;;;;;-4.93;81.69;102339.09;1608874;88;26056;-77
2022/01/11 02:24:37;;;;;;;68.22;31.25;;;;;;;-4.93;81.58;102339.09;1611520;88;26526;-77
2022/01/11 02:27:05;;;;;;;70.28;33.20;;;;;;;-4.94;81.52;102329.99;1612090;88;27627;-77
2022/01/11 02:29:33;;;;;;;64.90;33.50;;;;;;;-4.92;81.52;102336.03;1609017;88;25873;-77
2022/01/11 02:31:59;;;;;;;71.60;35.08;;;;;;;-4.96;81.38;102332.63;1610858;88;25998;-77
2022/01/11 02:34:26;;;;;;;69.77;34.18;;;;;;;-4.95;81.63;102336.97;1612347;88;25838;-77
2022/01/11 02:37:04;;;;;;;73.57;36.03;;;;;;;-4.94;81.73;102344.37;1611466;88;25963;-77
2022/01/11 02:39:38;;;;;;;73.95;36.42;;;;;;;-4.95;81.47;102349.17;1610341;88;27576;-77
2022/01/11 02:42:07;;;;;;;72.05;37.65;;;;;;;-4.95;81.65;102348.73;1608518;88;25962;-76
2022/01/11 02:44:35;;;;;;;74.32;33.80;;;;;;;-4.93;82.02;102353.90;1611828;88;25781;-78
2022/01/11 02:47:02;;;;;;;72.75;33.80;;;;;;;-4.90;82.32;102355.95;1588058;88;25859;-77
2022/01/11 02:49:30;;;;;;;64.17;30.92;;;;;;;-4.87;82.46;102353.71;1609711;88;26011;-76
2022/01/11 02:51:58;;;;;;;74.27;34.67;;;;;;;-4.87;82.56;102353.71;1610994;88;27482;-77
2022/01/11 02:54:25;;;;;;;69.67;31.93;;;;;;;-4.88;81.99;102350.70;1611404;88;25799;-76
2022/01/11 02:56:53;;;;;;;72.35;31.62;;;;;;;-4.91;81.84;102358.63;1608249;88;26516;-77
2022/01/11 02:59:19;;;;;;;78.02;33.80;;;;;;;-4.95;81.63;102363.10;1611599;88;26630;-77
2022/01/11 03:01:45;;;;;;;69.67;31.55;;;;;;;-4.97;81.55;102358.81;1611425;88;25814;-77
2022/01/11 03:04:12;;;;;;;73.20;32.45;;;;;;;-5.00;81.44;102363.67;1609713;88;28269;-77
2022/01/11 03:06:38;;;;;;;70.42;31.55;;;;;;;-5.03;81.30;102364.23;1612109;88;25810;-77
2022/01/11 03:09:05;;;;;;;66.07;32.20;;;;;;;-5.05;81.10;102367.34;1611218;88;25798;-77
2022/01/11 03:11:33;;;;;;;67.85;30.92;;;;;;;-5.12;80.69;102365.35;1609573;88;25883;-78
2022/01/11 03:14:02;;;;;;;66.28;30.45;;;;;;;-5.15;80.77;102363.29;1590459;88;26126;-76
2022/01/11 03:16:30;;;;;;;68.57;31.00;;;;;;;-5.18;80.82;102368.59;1612249;88;28364;-77
2022/01/11 03:18:56;;;;;;;66.45;31.02;;;;;;;-5.20;80.91;102366.03;1609783;88;26104;-77
2022/01/11 03:21:23;;;;;;;69.27;30.20;;;;;;;-5.21;80.72;102369.97;1611463;88;25896;-77
2022/01/11 03:23:49;;;;;;;71.12;31.25;;;;;;;-5.27;80.53;102365.79;1588723;88;25862;-77
2022/01/11 03:26:16;;;;;;;63.90;31.90;;;;;;;-5.31;80.37;102365.91;1609660;88;26505;-77
2022/01/11 03:28:42;;;;;;;68.62;30.95;;;;;;;-5.36;80.25;102370.40;1611605;88;27540;-77
2022/01/11 03:31:09;;;;;;;70.70;30.55;;;;;;;-5.42;80.14;102376.66;1611390;88;25906;-78
2022/01/11 03:33:37;;;;;;;64.47;29.07;;;;;;;-5.47;79.91;102374.17;1608580;88;25857;-77
2022/01/11 03:36:04;;;;;;;61.48;30.32;;;;;;;-5.51;79.85;102371.69;1588509;88;26609;-77
2022/01/11 03:38:33;;;;;;;64.90;30.57;;;;;;;-5.55;79.71;102376.14;1611736;88;25811;-77
2022/01/11 03:41:01;;;;;;;65.92;30.48;;;;;;;-5.57;79.96;102378.38;1608930;88;27483;-77
2022/01/11 03:43:28;;;;;;;64.45;30.97;;;;;;;-5.53;80.26;102382.17;1610669;88;26145;-77
2022/01/11 03:45:56;;;;;;;60.95;29.67;;;;;;;-5.52;80.31;102377.83;1612248;88;25846;-77
2022/01/11 03:48:22;;;;;;;61.23;29.75;;;;;;;-5.56;79.99;102375.72;1608672;88;26600;-76
2022/01/11 03:50:53;;;;;;;64.17;29.92;;;;;;;-5.60;79.83;102376.70;1610774;88;25376;-77
2022/01/11 03:53:22;;;;;;;66.82;30.20;;;;;;;-5.64;79.73;102381.61;1611596;88;28343;-77
2022/01/11 03:58:26;;;;;;;68.67;31.85;;;;;;;-5.69;79.87;102391.77;1610077;88;26540;-77
2022/01/11 04:00:54;;;;;;;69.42;31.33;;;;;;;-5.68;80.13;102397.38;1610705;88;25787;-77
2022/01/11 04:03:22;;;;;;;80.35;33.33;;;;;;;-5.66;80.38;102395.59;1612405;88;25972;-77
2022/01/11 04:05:49;;;;;;;65.22;31.07;;;;;;;-5.65;80.35;102396.01;1611268;88;27569;-77
2022/01/11 04:08:17;;;;;;;67.53;30.25;;;;;;;-5.65;80.11;102396.01;1609857;88;25989;-77
2022/01/11 04:10:43;;;;;;;63.95;31.25;;;;;;;-5.65;80.04;102397.31;1612505;88;25770;-77
2022/01/11 04:13:10;;;;;;;64.87;31.93;;;;;;;-5.66;79.96;102404.28;1610977;88;26020;-76
2022/01/11 04:15:37;;;;;;;68.65;30.68;;;;;;;-5.67;79.96;102402.59;1586882;88;26031;-76
2022/01/11 04:18:03;;;;;;;56.88;28.62;;;;;;;-5.73;79.76;102394.89;1609852;88;28432;-77
2022/01/11 04:20:30;;;;;;;60.33;30.55;;;;;;;-5.77;79.57;102397.17;1611316;88;25882;-77
2022/01/11 04:22:56;;;;;;;66.60;27.85;;;;;;;-5.81;79.44;102402.51;1611655;88;25768;-76
2022/01/11 04:25:23;;;;;;;66.25;29.32;;;;;;;-5.85;79.34;102405.69;1609830;88;25821;-77
2022/01/11 04:27:52;;;;;;;60.75;29.77;;;;;;;-5.88;79.38;102408.36;1611543;88;25964;-77
2022/01/11 04:30:18;;;;;;;65.75;31.02;;;;;;;-5.87;79.54;102412.70;1608317;88;27541;-77
2022/01/11 04:32:45;;;;;;;58.25;26.82;;;;;;;-5.86;79.68;102412.27;1610357;88;26004;-77
2022/01/11 04:35:15;;;;;;;63.65;29.50;;;;;;;-5.87;79.64;102418.36;1607815;88;25885;-77
2022/01/11 04:37:44;;;;;;;67.78;31.30;;;;;;;-5.90;79.35;102422.37;1606249;88;26601;-77
2022/01/11 04:40:13;;;;;;;62.38;27.55;;;;;;;-5.93;79.29;102418.08;1608866;88;25961;-77
2022/01/11 04:42:40;;;;;;;60.20;26.90;;;;;;;-5.96;79.15;102425.10;1599120;88;28343;-77
2022/01/11 04:45:10;;;;;;;59.38;29.18;;;;;;;-5.99;79.04;102426.06;1611915;88;25922;-77
2022/01/11 04:47:36;;;;;;;59.08;28.23;;;;;;;-6.02;78.91;102426.56;1612925;88;25888;-77
2022/01/11 04:50:05;;;;;;;63.00;27.52;;;;;;;-6.07;78.84;102430.58;1606917;88;25992;-77
2022/01/11 04:52:31;;;;;;;56.53;27.87;;;;;;;-6.11;78.72;102428.94;1607227;88;26338;-77
2022/01/11 04:54:58;;;;;;;62.60;28.52;;;;;;;-6.14;78.86;102428.17;1587062;88;27499;-77
2022/01/11 04:57:24;;;;;;;64.95;30.27;;;;;;;-6.17;79.05;102422.58;1604976;88;25906;-76
2022/01/11 04:59:50;;;;;;;55.80;27.20;;;;;;;-6.19;79.01;102428.28;1605818;88;26550;-76
2022/01/11 05:02:17;;;;;;;66.72;30.25;;;;;;;-6.20;79.02;102429.63;1608433;88;26645;-78
2022/01/11 05:04:44;;;;;;;67.90;30.05;;;;;;;-6.20;79.08;102433.06;1608259;88;25988;-76
2022/01/11 05:07:10;;;;;;;67.27;30.52;;;;;;;-6.16;79.42;102436.48;1608638;88;27457;-77
2022/01/11 05:09:37;;;;;;;63.50;28.55;;;;;;;-6.13;79.88;102433.78;1611025;88;25892;-76
2022/01/11 05:12:05;;;;;;;71.22;31.82;;;;;;;-6.12;80.24;102437.68;1612363;88;25853;-77
2022/01/11 05:14:32;;;;;;;67.25;32.13;;;;;;;-6.12;80.36;102436.38;1604775;88;25851;-77
2022/01/11 05:16:58;;;;;;;62.65;33.23;;;;;;;-6.10;80.32;102435.89;1609329;88;25929;-77
2022/01/11 05:19:25;;;;;;;68.25;32.48;;;;;;;-6.10;80.21;102429.81;1611554;88;27465;-77
2022/01/11 05:21:51;;;;;;;80.07;40.50;;;;;;;-6.07;80.34;102436.27;1612326;88;25865;-77
2022/01/11 05:24:17;;;;;;;72.92;38.38;;;;;;;-6.03;80.59;102431.39;1605203;88;25959;-77
2022/01/11 05:26:45;;;;;;;82.25;38.48;;;;;;;-6.04;80.59;102433.13;1603795;88;25884;-77
2022/01/11 05:29:11;;;;;;;69.20;32.65;;;;;;;-6.04;80.56;102429.22;1607542;88;26186;-77
2022/01/11 05:31:38;;;;;;;73.55;35.08;;;;;;;-6.05;80.23;102431.88;1606220;88;27546;-78
2022/01/11 05:34:04;;;;;;;75.78;35.55;;;;;;;-6.05;80.09;102437.92;1610542;88;25928;-77
2022/01/11 05:36:30;;;;;;;67.55;33.33;;;;;;;-6.06;79.86;102440.58;1613464;88;25925;-78
2022/01/11 05:38:56;;;;;;;69.70;32.48;;;;;;;-6.09;79.63;102444.11;1611381;88;26644;-77
2022/01/11 05:41:23;;;;;;;66.97;33.20;;;;;;;-6.12;79.55;102448.55;1607436;88;26004;-77
2022/01/11 05:43:50;;;;;;;64.30;30.50;;;;;;;-6.12;79.57;102452.02;1605397;88;28310;-77
2022/01/11 05:46:18;;;;;;;70.60;30.52;;;;;;;-6.14;79.38;102447.73;1611638;88;26629;-77
2022/01/11 05:48:45;;;;;;;66.77;32.17;;;;;;;-6.18;79.47;102453.48;1602145;88;26241;-77
2022/01/11 05:51:15;;;;;;;71.20;32.83;;;;;;;-6.20;79.57;102455.70;1601333;88;26645;-78
2022/01/11 05:53:43;;;;;;;70.17;32.08;;;;;;;-6.22;79.57;102457.02;1614388;88;25973;-77
2022/01/11 05:56:09;;;;;;;72.80;32.40;;;;;;;-6.23;79.51;102463.14;1615537;86;27477;-78
2022/01/11 05:58:37;;;;;;;65.03;30.10;;;;;;;-6.23;79.51;102467.06;1588369;89;26639;-76
2022/01/11 06:01:04;;;;;;;65.22;31.45;;;;;;;-6.23;79.72;102460.53;1586149;89;25913;-77
2022/01/11 06:03:30;;;;;;;64.85;33.08;;;;;;;-6.22;79.76;102458.80;1617194;86;26605;-77
2022/01/11 06:05:57;;;;;;;67.03;29.95;;;;;;;-6.20;79.92;102462.22;1581884;89;26419;-78
2022/01/11 06:08:23;;;;;;;64.80;30.37;;;;;;;-6.23;79.60;102470.97;1556147;90;27578;-77
2022/01/11 06:10:49;;;;;;;64.62;30.72;;;;;;;-6.25;79.46;102466.67;1578979;88;25994;-77
2022/01/11 06:13:17;;;;;;;60.92;27.95;;;;;;;-6.29;79.27;102477.16;1578068;88;26517;-78
2022/01/11 06:15:44;;;;;;;59.58;28.05;;;;;;;-6.33;79.10;102485.12;1574453;88;25869;-78
2022/01/11 06:18:11;;;;;;;69.72;31.75;;;;;;;-6.37;79.25;102492.13;1578290;90;25959;-77
2022/01/11 06:20:42;;;;;;;65.75;29.42;;;;;;;-6.43;79.68;102491.40;1577762;89;27588;-77
2022/01/11 06:23:09;;;;;;;71.42;30.80;;;;;;;-6.45;79.75;102490.58;1604215;88;26141;-76
2022/01/11 06:25:37;;;;;;;71.62;32.55;;;;;;;-6.46;80.11;102488.88;1598118;89;26513;-77
2022/01/11 06:28:04;;;;;;;74.60;32.85;;;;;;;-6.44;80.21;102488.40;1569033;90;26581;-77
2022/01/11 06:30:31;;;;;;;71.85;31.97;;;;;;;-6.42;80.07;102494.00;1596277;89;25395;-76
2022/01/11 06:32:58;;;;;;;65.57;29.98;;;;;;;-6.41;79.92;102496.12;1580884;90;28246;-77
2022/01/11 06:35:25;;;;;;;67.55;30.40;;;;;;;-6.42;79.75;102503.12;1567576;90;25889;-77
2022/01/11 06:37:52;;;;;;;66.60;31.35;;;;;;;-6.42;79.52;102505.73;1584045;89;25920;-78
2022/01/11 06:40:21;;;;;;;68.90;32.20;;;;;;;-6.42;79.45;102507.03;1606446;88;25979;-76
2022/01/11 06:42:50;;;;;;;61.08;29.20;;;;;;;-6.44;79.39;102514.03;1606052;88;25866;-77
2022/01/11 06:45:17;;;;;;;63.57;30.07;;;;;;;-6.41;79.80;102521.77;1610656;87;27521;-77
2022/01/11 06:47:44;;;;;;;64.32;31.33;;;;;;;-6.41;79.80;102521.77;1607465;88;25991;-77
2022/01/11 06:50:12;;;;;;;61.70;29.23;;;;;;;-6.40;79.85;102528.71;1596220;89;25856;-79
2022/01/11 06:52:39;;;;;;;67.32;29.65;;;;;;;-6.40;79.93;102533.92;1573216;89;25929;-77
2022/01/11 06:55:08;;;;;;;63.42;29.30;;;;;;;-6.38;80.01;102541.27;1594871;89;25371;-78
2022/01/11 06:57:34;;;;;;;62.90;29.12;;;;;;;-6.36;80.28;102543.83;1596158;89;27554;-77
2022/01/11 07:00:01;;;;;;;63.92;27.85;;;;;;;-6.32;80.60;102546.34;1597093;89;26598;-78
2022/01/11 07:02:27;;;;;;;64.07;29.75;;;;;;;-6.29;80.73;102546.26;1594627;89;25787;-77
2022/01/11 07:04:56;;;;;;;67.03;31.07;;;;;;;-6.27;81.05;102549.30;1593514;89;26561;-77
2022/01/11 07:07:23;;;;;;;67.62;29.90;;;;;;;-6.24;81.41;102553.98;1572100;90;25854;-77
2022/01/11 07:09:50;;;;;;;65.90;32.50;;;;;;;-6.22;81.80;102550.90;1580464;90;28293;-77
2022/01/11 07:12:17;;;;;;;67.82;32.00;;;;;;;-6.18;82.20;102555.63;1610934;88;25943;-77
2022/01/11 07:14:44;;;;;;;79.27;33.95;;;;;;;-6.15;82.73;102557.70;1609640;88;26370;-77
2022/01/11 07:17:10;;;;;;;73.67;34.20;;;;;;;-6.09;83.04;102560.65;1613709;88;25754;-77
2022/01/11 07:19:38;;;;;;;82.62;35.43;;;;;;;-6.01;83.45;102561.33;1609557;88;25786;-76
2022/01/11 07:22:06;;;;;;;81.17;35.95;;;;;;;-5.94;83.64;102554.63;1584556;89;27469;-77
2022/01/11 07:24:34;;;;;;;76.40;34.00;;;;;;;-5.87;83.98;102560.56;1580250;88;25837;-78
2022/01/11 07:27:00;;;;;;;77.67;37.05;;;;;;;-5.83;84.23;102564.78;1574191;90;25818;-78
2022/01/11 07:29:27;;;;;;;88.40;37.00;;;;;;;-5.78;84.45;102557.71;1608974;88;26272;-77
2022/01/11 07:31:53;;;;;;;81.42;36.48;;;;;;;-5.72;84.93;102560.17;1607761;88;25842;-77
2022/01/11 07:34:21;;;;;;;85.28;32.98;;;;;;;-5.70;85.29;102564.91;1608299;88;27482;-78
2022/01/11 07:36:48;;;;;;;87.00;32.80;;;;;;;-5.69;85.68;102567.95;1607306;88;26460;-77
2022/01/11 07:39:14;;;;;;;85.32;37.03;;;;;;;-5.71;85.91;102567.96;1607849;88;25895;-76
2022/01/11 07:41:42;;;;;;;82.05;32.98;;;;;;;-5.70;85.97;102572.73;1610828;88;25908;-78
2022/01/11 07:44:10;;;;;;;69.03;29.87;;;;;;;-5.68;86.30;102577.47;1606087;88;26138;-77
2022/01/11 07:46:39;;;;;;;79.15;32.15;;;;;;;-5.69;86.63;102582.30;1587899;88;27560;-77
2022/01/11 07:49:08;;;;;;;83.07;32.70;;;;;;;-5.73;86.81;102585.87;1609948;87;26097;-77
2022/01/11 07:51:35;;;;;;;93.58;37.08;;;;;;;-5.74;86.89;102585.45;1612394;88;26606;-77
2022/01/11 07:54:05;;;;;;;81.95;33.92;;;;;;;-5.73;87.09;102592.41;1611204;88;25814;-77
2022/01/11 07:56:33;;;;;;;72.60;33.55;;;;;;;-5.71;87.21;102594.53;1613904;87;25956;-77
2022/01/11 07:58:59;;;;;;;90.38;40.48;;;;;;;-5.67;87.34;102604.00;1606699;88;27456;-77
2022/01/11 08:01:27;;;;;;;91.47;38.70;;;;;;;-5.61;87.54;102601.25;1601997;88;26582;-77
2022/01/11 08:03:53;;;;;;;65.32;28.83;;;;;;;-5.54;87.65;102611.50;1622502;88;25732;-76
2022/01/11 08:06:22;;;;;;;80.20;32.75;;;;;;;-5.51;87.75;102611.88;1605350;88;26523;-78
2022/01/11 08:08:50;;;;;;;70.32;31.27;;;;;;;-5.52;87.55;102613.63;1606435;88;26622;-79
2022/01/11 08:11:16;;;;;;;72.82;32.35;;;;;;;-5.52;87.59;102617.53;1609918;88;27503;-77
2022/01/11 08:13:43;;;;;;;67.32;27.70;;;;;;;-5.52;87.84;102624.06;1585715;89;26000;-77
2022/01/11 08:16:09;;;;;;;72.50;31.23;;;;;;;-5.53;87.80;102622.80;1597453;89;25824;-78
2022/01/11 08:18:36;;;;;;;74.72;30.68;;;;;;;-5.55;87.86;102624.59;1582168;90;26644;-78
2022/01/11 08:21:02;;;;;;;65.15;27.40;;;;;;;-5.58;87.83;102622.08;1572058;90;25863;-77
2022/01/11 08:23:29;;;;;;;66.77;29.48;;;;;;;-5.58;88.01;102630.73;1581840;90;27556;-78
2022/01/11 08:25:57;;;;;;;68.15;29.15;;;;;;;-5.59;88.08;102630.34;1611384;88;26513;-77
2022/01/11 08:28:25;;;;;;;69.17;30.25;;;;;;;-5.59;88.24;102632.95;1613726;88;25837;-77
2022/01/11 08:30:54;;;;;;;71.35;31.12;;;;;;;-5.58;88.33;102637.27;1609646;88;26338;-78
2022/01/11 08:33:20;;;;;;;72.82;32.73;;;;;;;-5.56;88.70;102643.31;1610436;88;26079;-78
2022/01/11 08:35:46;;;;;;;77.32;34.00;;;;;;;-5.55;88.64;102639.81;1610351;88;27433;-79
2022/01/11 08:38:14;;;;;;;82.65;35.78;;;;;;;-5.51;88.66;102638.84;1605297;88;25726;-77
2022/01/11 08:40:42;;;;;;;92.47;39.10;;;;;;;-5.44;88.67;102638.70;1613126;88;26004;-77
2022/01/11 08:43:09;;;;;;;82.50;35.33;;;;;;;-5.39;88.67;102644.25;1605310;88;25769;-77
2022/01/11 08:45:37;;;;;;;92.30;37.28;;;;;;;-5.34;88.63;102644.98;1585998;88;25802;-77
2022/01/11 08:48:06;;;;;;;99.85;40.33;;;;;;;-5.28;88.67;102643.52;1613766;87;28329;-78
2022/01/11 08:50:34;;;;;;;95.72;42.55;;;;;;;-5.19;88.68;102634.61;1612127;88;26007;-77
2022/01/11 08:53:00;;;;;;;84.00;36.48;;;;;;;-5.12;88.73;102642.27;1608005;88;25791;-78
2022/01/11 08:55:27;;;;;;;93.75;39.78;;;;;;;-5.05;88.72;102648.20;1612834;88;27022;-77
2022/01/11 08:57:55;;;;;;;87.62;36.85;;;;;;;-5.01;88.63;102649.84;1607450;88;25793;-78
2022/01/11 09:00:24;;;;;;;86.00;35.70;;;;;;;-4.97;88.62;102643.64;1608961;88;27449;-77
2022/01/11 09:02:53;;;;;;;89.33;40.40;;;;;;;-4.93;88.69;102651.37;1611427;88;26469;-77
2022/01/11 09:05:23;;;;;;;98.05;42.88;;;;;;;-4.87;88.75;102647.28;1610917;88;25989;-77
2022/01/11 09:07:50;;;;;;;98.62;41.58;;;;;;;-4.79;88.91;102643.19;1611038;88;25948;-78
2022/01/11 09:10:17;;;;;;;99.28;44.27;;;;;;;-4.70;89.00;102642.92;1609366;88;25872;-77
2022/01/11 09:12:44;;;;;;;104.30;45.28;;;;;;;-4.63;89.05;102637.95;1610478;88;28344;-77
2022/01/11 09:15:10;;;;;;;108.32;46.28;;;;;;;-4.54;89.11;102635.54;1608855;88;26017;-78
2022/01/11 09:17:38;;;;;;;100.60;43.25;;;;;;;-4.45;89.12;102630.06;1610316;88;25910;-78
2022/01/11 09:20:07;;;;;;;93.95;39.45;;;;;;;-4.37;89.14;102630.27;1590417;88;26577;-78
2022/01/11 09:22:34;;;;;;;87.27;37.63;;;;;;;-4.30;89.11;102629.64;1610180;88;25956;-78
2022/01/11 09:25:02;;;;;;;101.27;43.50;;;;;;;-4.23;88.99;102632.47;1611086;88;28108;-77
2022/01/11 09:27:30;;;;;;;99.22;42.78;;;;;;;-4.17;89.01;102631.02;1608540;88;25899;-76
2022/01/11 09:29:57;;;;;;;104.25;47.85;;;;;;;-4.12;88.99;102627.35;1609183;88;25815;-75
2022/01/11 09:32:25;;;;;;;91.53;39.20;;;;;;;-4.05;88.99;102628.03;1582187;88;25881;-76
2022/01/11 09:34:52;;;;;;;101.72;42.85;;;;;;;-3.98;88.93;102629.58;1609864;88;25949;-76
2022/01/11 09:37:23;;;;;;;100.80;44.05;;;;;;;-3.93;88.79;102628.53;1609949;88;27473;-79
2022/01/11 09:39:49;;;;;;;111.42;49.83;;;;;;;-3.89;88.71;102634.52;1605053;88;25794;-78
2022/01/11 09:42:18;;;;;;;96.37;41.98;;;;;;;-3.83;88.71;102632.19;1611346;88;25996;-79
2022/01/11 09:44:47;;;;;;;103.30;43.02;;;;;;;-3.77;88.76;102628.08;1597950;87;25898;-76
2022/01/11 09:47:14;;;;;;;105.75;45.73;;;;;;;-3.73;88.72;102630.55;1581359;89;25822;-80
2022/01/11 09:49:44;;;;;;;96.15;43.25;;;;;;;-3.71;88.59;102633.98;1572518;90;27498;-79
2022/01/11 09:52:12;;;;;;;88.60;38.53;;;;;;;-3.71;88.53;102623.51;1577930;90;25876;-77
2022/01/11 09:54:42;;;;;;;94.00;38.60;;;;;;;-3.67;88.42;102622.51;1576541;90;25939;-78
2022/01/11 09:57:10;;;;;;;92.22;38.23;;;;;;;-3.67;88.31;102625.12;1586764;89;25895;-78
2022/01/11 09:59:38;;;;;;;99.52;41.70;;;;;;;-3.64;88.52;102630.28;1586908;89;25789;-80
2022/01/11 10:02:22;;;;;;;97.82;40.28;;;;;;;-3.60;88.69;102624.48;1578654;89;27466;-78
2022/01/11 10:05:05;;;;;;;82.17;38.38;;;;;;;-3.55;88.77;102631.77;1585613;89;25816;-78
2022/01/11 10:07:48;;;;;;;95.70;40.05;;;;;;;-3.55;88.41;102631.77;1583562;89;25887;-79
2022/01/11 10:10:22;;;;;;;91.82;39.00;;;;;;;-3.53;88.23;102636.50;1570825;90;26520;-79
2022/01/11 10:12:55;;;;;;;91.22;36.33;;;;;;;-3.52;88.19;102630.34;1603590;89;26823;-79
2022/01/11 10:15:34;;;;;;;84.75;36.03;;;;;;;-3.50;88.34;102635.07;1595445;89;28449;-79
2022/01/11 10:18:06;;;;;;;84.00;39.40;;;;;;;-3.47;88.46;102629.75;1580010;90;25966;-78
2022/01/11 10:20:35;;;;;;;95.80;40.35;;;;;;;-3.42;88.60;102635.72;1597546;89;25713;-79
2022/01/11 10:23:07;;;;;;;86.50;36.05;;;;;;;-3.41;88.62;102640.90;1591943;87;26651;-78
2022/01/11 10:25:46;;;;;;;86.90;39.05;;;;;;;-3.36;88.70;102636.34;1599828;87;25833;-79
2022/01/11 10:28:13;;;;;;;86.67;37.15;;;;;;;-3.35;88.51;102634.15;1584267;88;27551;-79
2022/01/11 10:30:41;;;;;;;85.62;37.70;;;;;;;-3.33;88.69;102638.02;1579732;88;26538;-79
2022/01/11 10:33:09;;;;;;;86.90;35.60;;;;;;;-3.29;88.63;102644.43;1578070;89;25917;-79
2022/01/11 10:35:44;;;;;;;79.47;37.23;;;;;;;-3.28;88.45;102643.54;1594875;89;26492;-79
2022/01/11 10:38:17;;;;;;;87.65;36.93;;;;;;;-3.29;88.41;102645.73;1573139;90;25934;-79
2022/01/11 10:40:46;;;;;;;81.55;35.40;;;;;;;-3.30;88.33;102641.42;1573996;89;28425;-78
2022/01/11 10:43:17;;;;;;;84.47;33.92;;;;;;;-3.30;88.19;102647.11;1594575;89;25915;-78
2022/01/11 10:45:49;;;;;;;73.75;32.73;;;;;;;-3.28;88.45;102648.78;1598219;89;32590;-78
2022/01/11 10:48:26;;;;;;;82.80;36.33;;;;;;;-3.25;88.48;102654.38;1566948;90;26582;-78
2022/01/11 10:50:56;;;;;;;74.25;32.70;;;;;;;-3.24;88.53;102649.08;1598683;87;26562;-78
2022/01/11 10:53:32;;;;;;;78.02;34.48;;;;;;;-3.21;88.32;102654.20;1548350;89;27525;-79
2022/01/11 10:56:04;;;;;;;78.80;34.48;;;;;;;-3.20;88.27;102656.38;1558771;90;25846;-79
2022/01/11 10:58:36;;;;;;;82.82;33.98;;;;;;;-3.16;88.41;102656.68;1586489;87;25879;-79
2022/01/11 11:01:00;;;;;;;79.70;32.48;;;;;;;-3.15;88.59;102650.55;1598160;89;25795;-79
2022/01/11 11:03:31;;;;;;;77.75;31.50;;;;;;;-3.09;88.89;102649.03;1586630;89;25940;-79
2022/01/11 11:06:07;;;;;;;82.82;36.90;;;;;;;-3.03;88.87;102655.38;1601562;87;28337;-79
2022/01/11 11:08:38;;;;;;;81.57;34.70;;;;;;;-3.00;88.70;102657.91;1581201;89;26137;-79
2022/01/11 11:11:09;;;;;;;84.60;36.42;;;;;;;-2.93;88.76;102659.88;1606299;88;25841;-78
2022/01/11 11:13:41;;;;;;;74.85;33.80;;;;;;;-2.88;88.82;102657.50;1610578;88;26564;-78
2022/01/11 11:16:17;;;;;;;82.47;35.78;;;;;;;-2.84;88.76;102662.17;1609190;88;26406;-78
2022/01/11 11:18:56;;;;;;;86.25;35.43;;;;;;;-2.84;88.53;102657.80;1612694;86;27531;-78